METAR Data
IDs: Format: Raw Decoded Include TAF

Data at: 0434 UTC 26 Sep 2018

KMNH 260406Z AUTO 14006KT 10SM CLR 03/M03 A3040 RMK AO2
KMNH 260347Z AUTO 14007KT 10SM CLR 02/M03 A3039 RMK AO2
KMNH 260324Z AUTO 14007KT 10SM CLR 03/M03 A3038 RMK AO2
KMNH 260306Z AUTO 14006KT 10SM CLR 05/M03 A3038 RMK AO2
KMNH 260248Z AUTO 15007KT 10SM CLR 05/M03 A3038 RMK AO2
KMNH 260224Z AUTO 13007KT 10SM CLR 05/M03 A3037 RMK AO2
KMNH 260206Z AUTO 12006KT 10SM CLR 06/M03 A3037 RMK AO2
KMNH 260148Z AUTO 12006KT 10SM CLR 06/M03 A3036 RMK AO2
KMNH 260124Z AUTO 12007KT 10SM CLR 07/M03 A3035 RMK AO2
KMNH 260106Z AUTO 10006KT 10SM CLR 07/M03 A3034 RMK AO2
KMNH 260048Z AUTO 08005KT 10SM CLR 08/M03 A3033 RMK AO2
KMNH 260024Z AUTO 07008KT 10SM CLR 10/M03 A3032 RMK AO2
KMNH 260006Z AUTO 08012KT 10SM CLR 11/M03 A3031 RMK AO2
KMNH 252347Z AUTO 08008KT 10SM CLR 12/M02 A3030 RMK AO2
KMNH 252329Z AUTO 07005KT 10SM CLR 12/M03 A3030 RMK AO2
KMNH 252306Z AUTO 05010KT 10SM CLR 12/M02 A3029 RMK AO2
KMNH 252248Z AUTO 04007KT 10SM CLR 12/M02 A3029 RMK AO2
KMNH 252224Z AUTO 08008KT 10SM CLR 13/M02 A3028 RMK AO2
KMNH 252206Z AUTO 06009KT 10SM CLR 13/M02 A3027 RMK AO2
KMNH 252148Z AUTO 07007KT 10SM CLR 13/M02 A3027 RMK AO2
KMNH 252124Z AUTO 03004KT 10SM CLR 12/M02 A3028 RMK AO2
KMNH 252106Z AUTO 10004KT 10SM CLR 12/M02 A3028 RMK AO2
KMNH 252048Z AUTO 05006KT 10SM CLR 12/M02 A3029 RMK AO2
KMNH 252024Z AUTO 10004KT 10SM CLR 12/M02 A3029 RMK AO2
KMNH 252006Z AUTO 04003KT 10SM CLR 12/M02 A3029 RMK AO2
KMNH 251948Z AUTO 08005KT 10SM CLR 12/M02 A3030 RMK AO2
KMNH 251924Z AUTO 05003KT 10SM CLR 11/M02 A3030 RMK AO2
KMNH 251906Z AUTO 34006KT 10SM CLR 11/M02 A3031 RMK AO2
KMNH 251848Z AUTO 36006G09KT 10SM CLR 11/M02 A3030 RMK AO2
KMNH 251824Z AUTO 35006KT 10SM CLR 10/M02 A3031 RMK AO2
KMNH 251806Z AUTO 01009KT 10SM CLR 10/M01 A3031 RMK AO2
KMNH 251748Z AUTO 36009G15KT 10SM CLR 09/M01 A3032 RMK AO2
KMNH 251724Z AUTO 35009G14KT 10SM CLR 08/M01 A3032 RMK AO2
KMNH 251706Z AUTO 35011KT 10SM CLR 08/M01 A3032 RMK AO2
KMNH 251649Z AUTO 36011KT 10SM CLR 07/M01 A3032 RMK AO2
KMNH 251625Z AUTO 35011G16KT 10SM CLR 07/M01 A3032 RMK AO2
KMNH 251607Z AUTO 34011G16KT 10SM CLR 06/M01 A3032 RMK AO2
KMNH 251549Z AUTO 36014KT 10SM CLR 06/00 A3032 RMK AO2
KMNH 251525Z AUTO 36013G18KT 10SM CLR 05/00 A3032 RMK AO2
KMNH 251507Z AUTO 36014KT 10SM CLR 05/00 A3032 RMK AO2
KMNH 251448Z AUTO 35010KT 10SM CLR 03/00 A3031 RMK AO2
KMNH 251424Z AUTO 36009KT 10SM CLR 03/00 A3031 RMK AO2
KMNH 251406Z AUTO 36009KT 10SM CLR 02/00 A3031 RMK AO2
KMNH 251348Z AUTO 01005KT 10SM CLR 01/00 A3031 RMK AO2
KMNH 251324Z AUTO 01005KT 10SM SCT006 SCT009 00/00 A3031 RMK AO2
KMNH 251306Z AUTO 35005KT 10SM BKN006 BKN009 01/00 A3030 RMK AO2
KMNH 251248Z AUTO 36006KT 10SM OVC008 01/00 A3029 RMK AO2
KMNH 251224Z AUTO 01007KT 10SM OVC008 02/00 A3029 RMK AO2
KMNH 251206Z AUTO 34006KT 10SM BKN008 BKN013 02/01 A3028 RMK AO2
KMNH 251148Z AUTO 35006KT 10SM BKN008 BKN012 BKN019 02/01 A3028 RMK AO2
KMNH 251124Z AUTO 36011KT 10SM BKN006 OVC011 03/01 A3027 RMK AO2
KMNH 251106Z AUTO 35011G19KT 10SM OVC006 03/02 A3027 RMK AO2
KMNH 251048Z AUTO 36014G19KT 10SM OVC004 03/03 A3025 RMK AO2
KMNH 251024Z AUTO 01014G20KT 10SM BKN004 OVC008 04/03 A3023 RMK AO2
KMNH 251006Z AUTO 01016G24KT 7SM SCT002 BKN007 OVC011 05/04 A3022 RMK AO2
KMNH 250948Z AUTO 36021G26KT 10SM SCT009 SCT014 07/05 A3021 RMK AO2
KMNH 250924Z AUTO 34009KT 10SM CLR 08/02 A3018 RMK AO2
KMNH 250906Z AUTO 33008G14KT 10SM CLR 08/02 A3017 RMK AO2
KMNH 250848Z AUTO 30008KT 10SM CLR 07/03 A3016 RMK AO2
KMNH 250824Z AUTO 28006KT 10SM CLR 09/03 A3014 RMK AO2
KMNH 250806Z AUTO 20006KT 10SM CLR 10/03 A3012 RMK AO2
KMNH 250748Z AUTO 20006KT 10SM CLR 09/03 A3011 RMK AO2
KMNH 250724Z AUTO 19008KT 10SM CLR 08/03 A3010 RMK AO2
KMNH 250706Z AUTO 18005KT 10SM CLR 08/03 A3010 RMK AO2
KMNH 250647Z AUTO 19008KT 10SM CLR 10/03 A3010 RMK AO2
KMNH 250624Z AUTO 20006KT 10SM CLR 10/03 A3010 RMK AO2
KMNH 250606Z AUTO 20006KT 10SM SCT100 12/03 A3011 RMK AO2
KMNH 250548Z AUTO 26012G20KT 10SM BKN100 13/03 A3012 RMK AO2
KMNH 250524Z AUTO 17011KT 10SM CLR 11/04 A3008 RMK AO2
KMNH 250506Z AUTO 17011G16KT 10SM SCT100 SCT120 12/04 A3008 RMK AO2
KMNH 250448Z AUTO 16009G16KT 10SM SCT100 SCT110 12/04 A3008 RMK AO2
KMNH 250424Z AUTO 17013KT 10SM CLR 12/05 A3008 RMK AO2
KMNH 250406Z AUTO 17012KT 10SM CLR 11/05 A3008 RMK AO2
KMNH 250348Z AUTO 18010KT 10SM CLR 11/05 A3008 RMK AO2
KMNH 250324Z AUTO 16006KT 10SM CLR 10/05 A3008 RMK AO2
KMNH 250306Z AUTO 15011KT 10SM CLR 11/05 A3008 RMK AO2
KMNH 250248Z AUTO 14009KT 10SM CLR 11/05 A3007 RMK AO2
KMNH 250224Z AUTO 13007KT 10SM SCT085 11/06 A3009 RMK AO2
KMNH 250206Z AUTO 14007KT 10SM SCT085 11/06 A3008 RMK AO2
KMNH 250148Z AUTO 13005KT 10SM SCT085 12/06 A3007 RMK AO2
KMNH 250124Z AUTO 10003KT 10SM BKN085 BKN110 14/06 A3007 RMK AO2
KMNH 250106Z AUTO 06004KT 10SM SCT060 SCT070 BKN085 15/05 A3007 RMK AO2 LTG DSNT E
KMNH 250048Z AUTO 00000KT 10SM BKN070 BKN090 OVC110 16/04 A3008 RMK AO2 LTG DSNT NE
KMNH 250024Z AUTO 00000KT 10SM SCT070 BKN100 15/04 A3006 RMK AO2
KMNH 250006Z AUTO 33005KT 10SM BKN070 BKN090 BKN110 16/04 A3006 RMK AO2 LTG DSNT NE AND S
KMNH 242347Z AUTO 18011KT 10SM SCT070 BKN090 BKN120 17/05 A3004 RMK AO2 LTG DSNT NE
KMNH 242329Z AUTO 17013KT 10SM SCT100 BKN120 18/05 A3003 RMK AO2
KMNH 242305Z AUTO 10SM CLR 18/04 A3004 RMK AO2
KMNH 242248Z AUTO 20007KT 10SM SCT110 18/05 A3004 RMK AO2
KMNH 242224Z AUTO 19013KT 10SM CLR 18/06 A3004 RMK AO2
KMNH 242206Z AUTO 18011KT 10SM SCT030 SCT055 SCT080 17/07 A3004 RMK AO2
KMNH 242148Z AUTO 18012G16KT 10SM VCTS SCT028 SCT049 BKN080 15/08 A3005 RMK AO2 LTG DSNT E P0001
KMNH 242124Z AUTO 18006KT 10SM SCT065 SCT090 BKN120 18/05 A3005 RMK AO2
KMNH 242106Z AUTO 17009G20KT 10SM SCT065 SCT080 SCT090 17/06 A3005 RMK AO2
KMNH 242048Z AUTO 16017G22KT 10SM SCT110 18/06 A3004 RMK AO2
KMNH 242024Z AUTO 16018G22KT 10SM CLR 16/06 A3004 RMK AO2
KMNH 242006Z AUTO 14014G20KT 10SM CLR 16/07 A3006 RMK AO2
KMNH 241948Z AUTO 16009KT 10SM SCT100 SCT120 15/07 A3009 RMK AO2 P0001
KMNH 241924Z AUTO 00000KT 10SM SCT039 BKN100 OVC120 13/06 A3011 RMK AO2 P0001
KMNH 241906Z AUTO 30004KT 7SM -VCTSRA SCT035 SCT043 OVC060 12/08 A3014 RMK AO2 P0001
KMNH 241848Z AUTO 32015G18KT 10SM -RA BKN060 BKN070 OVC090 13/05 A3012 RMK AO2 LTG DSNT SW
KMNH 241824Z AUTO 00000KT 10SM BKN100 OVC120 17/03 A3010 RMK AO2
KMNH 241806Z AUTO 09006KT 10SM BKN100 BKN120 18/03 A3009 RMK AO2
KMNH 241748Z AUTO 12007KT 10SM SCT120 16/03 A3009 RMK AO2
KMNH 241724Z AUTO 09006KT 10SM SCT110 16/03 A3009 RMK AO2
KMNH 241706Z AUTO 07005KT 10SM BKN110 15/03 A3010 RMK AO2
KMNH 241648Z AUTO 07005KT 10SM SCT120 15/03 A3009 RMK AO2